Nelson — J8US9 — position and weather

sailwx.info

Track history (hours):
 
Tides and Currents Weather Stations Pressure Air Temp Water Temp Dewpoint Dewpoint Depression Visibility Wind Speed Wind Dir Waves Ship Positions

Nelson

Last reported at 2014-Jun-14 11:04 UTC. Time now 2014-Oct-02 04:22 UTC.
Position N 39°05' E 025°50'.
Warning: this ship's position is months out of date.

Length 164 m; draft 5.2 m.

Type: Cargo ship. MMSI: 376686000.

Date/timePositionNaut miles runAvg speedWind from/ knotsBaromVisibWave heightAir tempDewpointWater temp
2014-Jun-14 11:04N 39°05' E 025°50'1010.4
2014-Jun-14 10:04N 39°15' E 025°45'3411.5
2014-Jun-14 07:08N 39°48' E 025°49'712.1
2014-Jun-14 06:33N 39°55' E 025°53'1111.1
2014-Jun-14 05:33N 40°01' E 026°05'1612.9
2014-Jun-14 04:17N 40°10' E 026°23'1311.3
2014-Jun-14 03:06N 40°19' E 026°36'911.8
2014-Jun-14 02:23N 40°25' E 026°43'5411.2
2014-Jun-13 21:33N 40°47' E 027°48'66 6.9
2014-Jun-13 12:03N 41°16' E 029°07'4 8.7
2014-Jun-13 11:33N 41°17' E 029°02'  
Track history (hours):
 
Tides and Currents Weather Stations Pressure Air Temp Water Temp Dewpoint Dewpoint Depression Visibility Wind Speed Wind Dir Waves Ship Positions

Nelson

Last reported at 2014-Jun-14 11:04 UTC. Time now 2014-Oct-02 04:22 UTC.
Position N 39°05' E 025°50'.
Warning: this ship's position is months out of date.

Length 164 m; draft 5.2 m.

Type: Cargo ship. MMSI: 376686000.

Date/timePositionNaut miles runAvg speedWind from/ knotsBaromVisibWave heightAir tempDewpointWater temp
2014-Jun-14 11:04N 39°05' E 025°50'1010.4
2014-Jun-14 10:04N 39°15' E 025°45'3411.5
2014-Jun-14 07:08N 39°48' E 025°49'712.1
2014-Jun-14 06:33N 39°55' E 025°53'1111.1
2014-Jun-14 05:33N 40°01' E 026°05'1612.9
2014-Jun-14 04:17N 40°10' E 026°23'1311.3
2014-Jun-14 03:06N 40°19' E 026°36'911.8
2014-Jun-14 02:23N 40°25' E 026°43'5411.2
2014-Jun-13 21:33N 40°47' E 027°48'66 6.9
2014-Jun-13 12:03N 41°16' E 029°07'4 8.7
2014-Jun-13 11:33N 41°17' E 029°02'  

Dump ship's entire track history